Time;durP1;ratioP1;P1;durP2;ratioP2;P2;SDS_P1;SDS_P2;PMS_P1;PMS_P2;Temp;Humidity;BMP_temperature;BMP_pressure;BME280_temperature;BME280_humidity;BME280_pressure;Samples;Min_cycle;Max_cycle;Signal;HPM_P1;HPM_P2
2022/12/05 00:00:05;;;;;;;15.00;11.32;;;22.50;41.30;;;;;;7713068;22;83072;-74
2022/12/05 00:03:05;;;;;;;14.38;11.18;;;22.50;41.40;;;;;;7710671;22;82609;-74
2022/12/05 00:06:06;;;;;;;13.63;11.05;;;22.60;41.50;;;;;;7710449;22;83555;-75
2022/12/05 00:09:06;;;;;;;15.45;10.77;;;22.50;41.40;;;;;;7709763;22;83398;-76
2022/12/05 00:12:07;;;;;;;15.38;11.45;;;22.50;41.40;;;;;;7709801;22;83502;-75
2022/12/05 00:15:11;;;;;;;16.10;11.90;;;22.50;41.60;;;;;;7709227;22;83039;-76
2022/12/05 00:18:11;;;;;;;14.95;10.57;;;22.50;41.40;;;;;;7708776;22;83081;-76
2022/12/05 00:21:12;;;;;;;13.43;11.02;;;22.50;41.30;;;;;;7707855;22;84500;-76
2022/12/05 00:24:12;;;;;;;13.20;10.18;;;22.50;41.30;;;;;;7686475;22;83201;-74
2022/12/05 00:27:13;;;;;;;14.52;11.02;;;22.50;41.30;;;;;;7714930;22;83376;-75
2022/12/05 00:30:13;;;;;;;13.30;10.15;;;22.50;41.20;;;;;;7711327;22;83078;-75
2022/12/05 00:33:14;;;;;;;13.43;9.88;;;22.50;41.10;;;;;;7713007;22;84446;-64
2022/12/05 00:36:14;;;;;;;14.13;10.45;;;22.50;41.10;;;;;;7718153;22;83088;-65
2022/12/05 00:39:15;;;;;;;14.68;10.30;;;22.50;41.00;;;;;;7709913;22;83127;-65
2022/12/05 00:42:15;;;;;;;13.65;10.55;;;22.50;41.00;;;;;;7712630;22;84772;-64
2022/12/05 00:45:15;;;;;;;13.98;10.35;;;22.50;40.90;;;;;;7712110;22;83297;-64
2022/12/05 00:48:16;;;;;;;14.70;10.80;;;22.50;41.00;;;;;;7713097;22;83448;-65
2022/12/05 00:51:16;;;;;;;14.05;10.07;;;22.50;41.10;;;;;;7709921;22;82913;-63
2022/12/05 00:54:17;;;;;;;13.75;10.00;;;22.50;41.00;;;;;;7711543;22;83231;-64
2022/12/05 00:57:17;;;;;;;13.10;10.07;;;22.50;40.90;;;;;;7713682;22;83315;-63
2022/12/05 01:00:18;;;;;;;11.38;8.85;;;22.50;40.90;;;;;;7711712;22;83253;-63
2022/12/05 01:03:18;;;;;;;12.80;9.48;;;22.50;40.90;;;;;;7712855;22;81919;-65
2022/12/05 01:06:19;;;;;;;13.90;9.63;;;22.50;40.90;;;;;;7718215;22;81334;-65
2022/12/05 01:09:19;;;;;;;11.40;8.45;;;22.50;40.90;;;;;;7714593;22;80399;-65
2022/12/05 01:12:20;;;;;;;13.30;9.95;;;22.50;40.90;;;;;;7713707;22;82003;-66
2022/12/05 01:15:20;;;;;;;10.60;8.32;;;22.50;40.90;;;;;;7717750;22;80311;-63
2022/12/05 01:18:21;;;;;;;14.55;10.20;;;22.50;41.00;;;;;;7715203;22;81303;-62
2022/12/05 01:21:21;;;;;;;10.63;8.48;;;22.50;40.80;;;;;;7684222;22;82899;-63
2022/12/05 01:24:22;;;;;;;11.32;8.18;;;22.40;41.20;;;;;;7714361;22;82878;-62
2022/12/05 01:27:22;;;;;;;10.45;8.15;;;22.40;40.80;;;;;;7716564;22;84036;-61
2022/12/05 01:30:22;;;;;;;10.48;7.75;;;22.40;40.80;;;;;;7715280;22;81234;-63
2022/12/05 01:33:23;;;;;;;12.35;8.90;;;22.40;40.70;;;;;;7715935;22;80817;-62
2022/12/05 01:36:23;;;;;;;10.07;8.05;;;22.40;40.80;;;;;;7712075;22;80476;-62
2022/12/05 01:39:24;;;;;;;11.18;8.27;;;22.40;40.80;;;;;;7715247;22;80790;-63
2022/12/05 01:42:24;;;;;;;9.55;7.68;;;22.40;40.70;;;;;;7689280;22;82086;-63
2022/12/05 01:45:25;;;;;;;9.85;7.70;;;22.40;40.70;;;;;;7710590;22;80370;-63
2022/12/05 01:48:25;;;;;;;10.38;7.95;;;22.40;40.60;;;;;;7714342;22;81123;-63
2022/12/05 01:51:26;;;;;;;9.95;8.07;;;22.40;40.70;;;;;;7715959;22;80818;-62
2022/12/05 01:54:26;;;;;;;10.68;7.80;;;22.40;40.60;;;;;;7713869;22;80298;-60
2022/12/05 01:57:27;;;;;;;11.20;7.40;;;22.40;40.70;;;;;;7718668;22;82152;-62
2022/12/05 02:00:27;;;;;;;9.70;8.00;;;22.40;40.60;;;;;;7713946;22;80257;-61
2022/12/05 02:03:28;;;;;;;10.88;8.02;;;22.40;40.80;;;;;;7711938;22;81167;-60
2022/12/05 02:06:28;;;;;;;10.48;7.80;;;22.40;40.60;;;;;;7714560;22;80465;-63
2022/12/05 02:09:29;;;;;;;10.73;7.88;;;22.30;40.60;;;;;;7712595;22;81572;-63
2022/12/05 02:12:29;;;;;;;10.95;7.90;;;22.40;40.60;;;;;;7713095;22;81444;-62
2022/12/05 02:15:30;;;;;;;11.15;8.25;;;22.30;40.60;;;;;;7715304;22;81538;-63
2022/12/05 02:18:30;;;;;;;10.70;8.25;;;22.30;40.50;;;;;;7683790;22;82704;-62
2022/12/05 02:21:31;;;;;;;11.20;8.13;;;22.40;40.50;;;;;;7712544;22;80636;-63
2022/12/05 02:24:31;;;;;;;10.77;8.30;;;22.40;40.50;;;;;;7716314;22;80715;-62
2022/12/05 02:27:32;;;;;;;10.98;7.82;;;22.40;40.50;;;;;;7715086;22;80161;-62
2022/12/05 02:30:32;;;;;;;11.65;8.25;;;22.40;40.50;;;;;;7712705;22;80763;-62
2022/12/05 02:33:33;;;;;;;12.90;8.07;;;22.40;40.50;;;;;;7714964;22;80999;-63
2022/12/05 02:36:33;;;;;;;9.93;8.30;;;22.40;40.40;;;;;;7715026;22;80888;-63
2022/12/05 02:39:34;;;;;;;11.05;7.70;;;22.30;40.40;;;;;;7716718;22;80695;-63
2022/12/05 02:42:34;;;;;;;11.35;7.88;;;22.30;40.40;;;;;;7715712;22;81546;-71
2022/12/05 02:45:35;;;;;;;12.00;8.20;;;22.30;40.40;;;;;;7716486;22;80545;-75
2022/12/05 02:48:35;;;;;;;9.82;7.43;;;22.30;40.40;;;;;;7715816;22;80906;-73
2022/12/05 02:51:36;;;;;;;11.35;8.30;;;22.30;40.40;;;;;;7714789;22;80379;-75
2022/12/05 02:54:36;;;;;;;10.35;7.80;;;22.30;40.30;;;;;;7713523;22;80843;-73
2022/12/05 02:57:37;;;;;;;10.90;8.32;;;22.30;40.30;;;;;;7712433;22;80604;-70
2022/12/05 03:00:37;;;;;;;9.85;7.15;;;22.30;40.40;;;;;;7715111;22;80460;-63
2022/12/05 03:03:38;;;;;;;11.68;7.50;;;22.40;40.70;;;;;;7715977;22;80485;-63
2022/12/05 03:06:38;;;;;;;10.32;7.55;;;22.30;40.50;;;;;;7714561;22;79952;-63
2022/12/05 03:09:39;;;;;;;10.32;7.68;;;22.30;40.40;;;;;;7711260;22;80608;-64
2022/12/05 03:12:41;;;;;;;9.80;7.57;;;22.30;40.30;;;;;;7715520;22;81319;-64
2022/12/05 03:15:41;;;;;;;10.77;7.82;;;22.30;40.30;;;;;;7716095;22;80375;-62
2022/12/05 03:18:42;;;;;;;10.57;7.60;;;22.30;40.30;;;;;;7717379;22;80379;-62
2022/12/05 03:21:42;;;;;;;10.30;7.43;;;22.30;40.40;;;;;;7715197;22;80935;-63
2022/12/05 03:24:43;;;;;;;9.68;7.68;;;22.30;40.30;;;;;;7688912;22;80899;-62
2022/12/05 03:27:43;;;;;;;10.60;7.63;;;22.30;40.30;;;;;;7718106;22;80341;-63
2022/12/05 03:30:44;;;;;;;10.25;7.13;;;22.30;40.30;;;;;;7717242;22;80752;-64
2022/12/05 03:33:44;;;;;;;9.73;7.78;;;22.30;40.20;;;;;;7714820;22;81800;-64
2022/12/05 03:36:44;;;;;;;9.90;7.28;;;22.30;40.20;;;;;;7716886;22;80794;-64
2022/12/05 03:39:45;;;;;;;9.82;7.32;;;22.30;40.20;;;;;;7675075;22;80287;-65
2022/12/05 03:42:45;;;;;;;10.00;7.38;;;22.30;40.20;;;;;;7679440;22;80814;-65
2022/12/05 03:45:46;;;;;;;11.05;7.20;;;22.30;40.20;;;;;;7677011;22;80296;-64
2022/12/05 03:48:46;;;;;;;9.65;7.45;;;22.30;40.30;;;;;;7678571;22;81449;-63
2022/12/05 03:51:47;;;;;;;9.57;7.38;;;22.30;40.20;;;;;;7678639;22;80330;-65
2022/12/05 03:54:47;;;;;;;10.40;7.63;;;22.30;40.20;;;;;;7677285;22;80253;-63
2022/12/05 03:57:48;;;;;;;10.90;7.35;;;22.30;40.20;;;;;;7677852;22;80277;-62
2022/12/05 04:00:49;;;;;;;9.75;6.82;;;22.30;40.20;;;;;;7678024;22;81341;-63
2022/12/05 04:03:50;;;;;;;11.02;7.95;;;22.30;40.20;;;;;;7676187;22;81472;-62
2022/12/05 04:06:51;;;;;;;9.70;7.22;;;22.20;40.20;;;;;;7675791;22;81615;-61
2022/12/05 04:09:51;;;;;;;9.02;6.95;;;22.30;40.30;;;;;;7676624;22;80328;-61
2022/12/05 04:12:51;;;;;;;9.93;7.05;;;22.30;40.40;;;;;;7674816;22;81137;-61
2022/12/05 04:19:11;;;;;;;9.75;7.53;;;22.30;40.60;;;;;;7675728;22;80133;-60
2022/12/05 04:22:12;;;;;;;10.35;7.38;;;22.30;40.00;;;;;;7675869;22;80745;-61
2022/12/05 04:28:32;;;;;;;10.07;7.55;;;22.40;40.00;;;;;;7673597;22;80817;-65
2022/12/05 04:31:32;;;;;;;10.93;7.68;;;22.40;39.90;;;;;;7665850;22;83794;-64
2022/12/05 04:34:33;;;;;;;11.00;7.45;;;22.50;39.90;;;;;;7676840;22;80291;-62
2022/12/05 04:37:33;;;;;;;9.35;6.85;;;22.50;40.00;;;;;;7674247;22;80554;-62
2022/12/05 04:40:34;;;;;;;9.30;7.00;;;22.60;40.00;;;;;;7675085;22;80726;-61
2022/12/05 04:43:34;;;;;;;9.55;6.68;;;22.60;40.00;;;;;;7643827;22;80322;-62
2022/12/05 04:46:34;;;;;;;9.65;7.70;;;22.70;40.40;;;;;;7637604;22;81524;-59
2022/12/05 04:49:35;;;;;;;8.80;6.97;;;22.70;39.90;;;;;;7639157;22;80697;-62
2022/12/05 04:52:35;;;;;;;13.35;7.10;;;22.80;40.00;;;;;;7639686;22;80627;-61
2022/12/05 04:55:36;;;;;;;8.80;6.88;;;22.80;39.70;;;;;;7637732;22;80545;-61
2022/12/05 04:58:36;;;;;;;8.93;6.93;;;22.80;39.70;;;;;;7637045;22;80552;-63
2022/12/05 05:01:37;;;;;;;9.23;7.28;;;22.90;39.70;;;;;;7637038;22;80444;-60
2022/12/05 05:04:37;;;;;;;12.15;7.45;;;22.90;39.60;;;;;;7610057;22;81635;-61
2022/12/05 05:07:38;;;;;;;11.93;7.53;;;22.90;39.70;;;;;;7636186;22;81522;-61
2022/12/05 05:10:38;;;;;;;16.80;7.43;;;22.90;40.20;;;;;;7637678;22;80402;-67
2022/12/05 05:13:39;;;;;;;12.85;7.43;;;23.00;40.20;;;;;;7609517;22;80431;-66
2022/12/05 05:16:39;;;;;;;9.73;7.00;;;23.00;40.30;;;;;;7635377;22;80929;-67
2022/12/05 05:19:41;;;;;;;12.30;6.93;;;23.00;40.50;;;;;;7640360;22;80301;-67
2022/12/05 05:22:41;;;;;;;9.95;7.22;;;23.10;40.70;;;;;;7639781;22;80364;-65
2022/12/05 05:25:42;;;;;;;11.20;6.70;;;23.10;40.70;;;;;;7641125;22;80263;-63
2022/12/05 05:28:42;;;;;;;10.68;7.60;;;23.10;40.90;;;;;;7639866;22;81254;-65
2022/12/05 05:31:43;;;;;;;10.95;7.30;;;23.10;41.10;;;;;;7640513;22;80409;-64
2022/12/05 05:34:43;;;;;;;12.45;7.68;;;23.10;41.50;;;;;;7640397;22;80931;-63
2022/12/05 05:37:44;;;;;;;13.35;7.05;;;23.10;41.30;;;;;;7638697;22;81348;-66
2022/12/05 05:40:44;;;;;;;13.70;7.45;;;23.10;41.60;;;;;;7638859;22;79983;-65
2022/12/05 05:43:45;;;;;;;10.35;7.82;;;23.20;41.40;;;;;;7641842;22;81034;-65
2022/12/05 05:46:45;;;;;;;12.18;7.90;;;23.20;41.20;;;;;;7639766;22;80880;-75
2022/12/05 05:49:45;;;;;;;10.85;7.28;;;23.20;41.40;;;;;;7640195;22;80604;-77
2022/12/05 05:52:46;;;;;;;11.38;7.93;;;23.20;41.50;;;;;;7637804;22;81592;-72
2022/12/05 05:55:46;;;;;;;14.27;8.38;;;23.20;41.50;;;;;;7640043;22;80688;-74
2022/12/05 05:58:47;;;;;;;13.23;8.00;;;23.20;41.30;;;;;;7640351;22;80835;-67
2022/12/05 06:01:47;;;;;;;11.57;7.75;;;23.20;41.40;;;;;;7637986;22;80750;-62
2022/12/05 06:04:48;;;;;;;12.45;8.75;;;23.20;41.20;;;;;;7641135;22;80400;-71
2022/12/05 06:07:48;;;;;;;12.32;8.63;;;23.20;41.00;;;;;;7638698;22;80058;-63
2022/12/05 06:10:49;;;;;;;12.55;9.20;;;23.20;41.10;;;;;;7638195;22;80760;-68
2022/12/05 06:13:49;;;;;;;13.73;8.95;;;23.10;41.00;;;;;;7639292;22;80296;-61
2022/12/05 06:16:50;;;;;;;14.02;9.38;;;23.10;41.20;;;;;;7641165;22;80473;-69
2022/12/05 06:19:50;;;;;;;19.67;9.23;;;23.00;41.10;;;;;;7639908;22;80127;-67
2022/12/05 06:22:51;;;;;;;17.52;9.73;;;23.00;41.20;;;;;;7637763;22;81157;-67
2022/12/05 06:25:51;;;;;;;15.20;8.45;;;23.00;41.20;;;;;;7638797;22;80930;-65
2022/12/05 06:28:52;;;;;;;17.13;9.13;;;23.00;40.90;;;;;;7639681;22;80770;-66
2022/12/05 06:31:52;;;;;;;15.10;8.07;;;23.00;41.10;;;;;;7639083;22;80433;-65
2022/12/05 06:34:53;;;;;;;14.57;9.45;;;23.00;40.80;;;;;;7642038;22;80904;-66
2022/12/05 06:37:53;;;;;;;18.92;10.05;;;23.00;40.80;;;;;;7638754;22;80541;-66
2022/12/05 06:40:54;;;;;;;20.27;10.30;;;22.90;40.50;;;;;;7647216;22;83135;-66
2022/12/05 06:43:54;;;;;;;15.13;9.70;;;22.90;40.40;;;;;;7671093;22;82876;-67
2022/12/05 06:46:55;;;;;;;16.90;10.57;;;22.90;40.40;;;;;;7676250;22;82875;-67
2022/12/05 06:49:55;;;;;;;16.35;10.68;;;22.80;40.20;;;;;;7665825;22;83171;-71
2022/12/05 06:52:56;;;;;;;15.52;10.00;;;22.80;40.10;;;;;;7670088;22;84463;-71
2022/12/05 06:55:56;;;;;;;14.15;10.15;;;22.80;39.70;;;;;;7672815;22;83034;-70
2022/12/05 06:58:57;;;;;;;14.60;10.35;;;22.80;39.90;;;;;;7659147;22;83365;-71
2022/12/05 07:01:57;;;;;;;14.73;10.30;;;22.70;39.70;;;;;;7665878;22;83607;-69
2022/12/05 07:04:58;;;;;;;19.48;11.82;;;22.70;39.80;;;;;;7669612;22;83316;-69
2022/12/05 07:07:58;;;;;;;15.93;11.48;;;22.70;39.90;;;;;;7671357;22;83434;-69
2022/12/05 07:10:59;;;;;;;16.55;10.80;;;22.70;39.90;;;;;;7671384;22;83554;-70
2022/12/05 07:13:59;;;;;;;16.58;10.77;;;22.60;39.90;;;;;;7672561;22;84008;-69
2022/12/05 07:17:00;;;;;;;14.82;10.48;;;22.60;39.90;;;;;;7672413;22;82957;-70
2022/12/05 07:20:00;;;;;;;15.82;11.00;;;22.60;39.90;;;;;;7675117;22;84345;-68
2022/12/05 07:23:00;;;;;;;16.63;10.95;;;22.60;39.90;;;;;;7675326;22;82949;-70
2022/12/05 07:26:01;;;;;;;15.60;10.52;;;22.60;39.90;;;;;;7675714;22;83368;-71
2022/12/05 07:29:01;;;;;;;17.27;10.98;;;22.60;39.90;;;;;;7674902;22;83099;-69
2022/12/05 07:32:02;;;;;;;15.82;11.23;;;22.50;39.90;;;;;;7675209;22;83204;-69
2022/12/05 07:35:02;;;;;;;16.63;11.27;;;22.50;39.90;;;;;;7675534;22;87425;-62
2022/12/05 07:38:03;;;;;;;18.05;10.98;;;22.50;40.00;;;;;;7673160;22;83404;-69
2022/12/05 07:41:03;;;;;;;16.52;11.30;;;22.50;40.00;;;;;;7635609;22;83525;-70
2022/12/05 07:44:04;;;;;;;19.25;11.60;;;22.50;39.90;;;;;;7636695;22;83384;-70
2022/12/05 07:47:04;;;;;;;15.10;10.73;;;22.50;39.90;;;;;;7636098;22;83073;-68
2022/12/05 07:50:05;;;;;;;19.23;11.23;;;22.50;39.80;;;;;;7639171;22;83720;-69
2022/12/05 07:53:05;;;;;;;16.70;11.77;;;22.40;39.70;;;;;;7636472;22;83019;-69
2022/12/05 07:56:06;;;;;;;18.83;12.27;;;22.40;39.70;;;;;;7635945;22;82921;-69
2022/12/05 07:59:06;;;;;;;17.27;11.65;;;22.40;39.60;;;;;;7629269;22;83979;-68
2022/12/05 08:02:07;;;;;;;16.85;11.57;;;22.40;39.60;;;;;;7637533;22;83518;-68
2022/12/05 08:05:07;;;;;;;20.48;11.90;;;22.50;39.70;;;;;;7622402;22;83586;-74
2022/12/05 08:08:08;;;;;;;18.75;11.43;;;22.40;40.20;;;;;;7632933;22;83375;-70
2022/12/05 08:11:08;;;;;;;16.67;11.95;;;22.40;39.80;;;;;;7632674;22;84069;-74
2022/12/05 08:14:09;;;;;;;18.77;13.23;;;22.40;39.70;;;;;;7635890;22;83656;-60
2022/12/05 08:17:10;;;;;;;25.42;12.45;;;22.40;39.70;;;;;;7638231;22;84026;-62
2022/12/05 08:20:10;;;;;;;18.20;12.27;;;22.40;39.70;;;;;;7635789;22;84271;-62
2022/12/05 08:23:11;;;;;;;18.15;12.02;;;22.40;39.80;;;;;;7638783;22;84327;-61
2022/12/05 08:26:11;;;;;;;16.90;12.07;;;22.40;39.80;;;;;;7639698;22;83801;-63
2022/12/05 08:29:11;;;;;;;19.13;12.77;;;22.40;39.60;;;;;;7637202;22;83800;-60
2022/12/05 08:32:12;;;;;;;19.98;13.52;;;22.40;39.70;;;;;;7636930;22;83895;-61
2022/12/05 08:35:13;;;;;;;24.45;13.98;;;22.40;39.80;;;;;;7639381;22;84575;-62
2022/12/05 08:38:13;;;;;;;21.70;14.10;;;22.40;39.50;;;;;;7637348;22;83487;-62
2022/12/05 08:41:14;;;;;;;20.88;14.48;;;22.50;39.50;;;;;;7629084;22;83184;-60
2022/12/05 08:44:15;;;;;;;21.83;14.35;;;22.50;39.30;;;;;;7630505;22;83469;-61
2022/12/05 08:47:16;;;;;;;19.38;13.05;;;22.50;39.20;;;;;;7627314;22;83135;-61
2022/12/05 08:50:16;;;;;;;22.92;15.05;;;22.50;39.10;;;;;;7630171;22;83508;-76
2022/12/05 08:53:17;;;;;;;22.27;14.15;;;22.60;39.00;;;;;;7635056;22;84711;-72
2022/12/05 08:56:17;;;;;;;23.33;15.07;;;22.60;38.80;;;;;;7639893;22;83390;-68
2022/12/05 08:59:18;;;;;;;24.77;15.38;;;22.70;38.80;;;;;;7639722;22;83033;-68
2022/12/05 09:02:19;;;;;;;23.85;16.05;;;22.70;38.50;;;;;;7624464;22;83642;-72
2022/12/05 09:05:19;;;;;;;23.88;16.05;;;22.70;38.40;;;;;;7635419;22;83760;-72
2022/12/05 09:08:20;;;;;;;22.23;14.65;;;22.70;38.40;;;;;;7636560;22;83448;-62
2022/12/05 09:11:20;;;;;;;23.42;15.40;;;22.80;38.40;;;;;;7636420;22;83863;-62
2022/12/05 09:14:21;;;;;;;27.63;17.42;;;22.80;39.00;;;;;;7636683;22;83998;-62
2022/12/05 09:17:21;;;;;;;23.65;15.20;;;22.80;38.30;;;;;;7632883;22;82973;-59
2022/12/05 09:20:22;;;;;;;21.48;14.27;;;22.80;38.20;;;;;;7628151;22;84055;-59
2022/12/05 09:23:22;;;;;;;25.00;15.88;;;22.80;38.20;;;;;;7629012;22;83265;-61
2022/12/05 09:26:23;;;;;;;26.00;15.98;;;22.80;38.00;;;;;;7639058;22;84033;-60
2022/12/05 09:29:24;;;;;;;22.73;14.90;;;22.80;38.00;;;;;;7637641;22;83535;-60
2022/12/05 09:32:24;;;;;;;23.27;15.75;;;22.80;38.00;;;;;;7635132;22;83242;-60
2022/12/05 09:35:25;;;;;;;23.85;16.23;;;22.80;38.00;;;;;;7636110;22;84410;-60
2022/12/05 09:38:25;;;;;;;24.15;15.63;;;22.90;38.00;;;;;;7609467;22;85096;-60
2022/12/05 09:44:45;;;;;;;23.98;15.13;;;22.90;37.80;;;;;;7634169;22;83091;-60
2022/12/05 09:47:45;;;;;;;22.05;14.82;;;22.90;37.80;;;;;;7635580;22;83424;-59
2022/12/05 09:50:46;;;;;;;19.38;13.70;;;22.90;37.80;;;;;;7637139;22;83109;-59
2022/12/05 09:53:47;;;;;;;25.75;15.20;;;22.90;37.80;;;;;;7638147;22;84210;-59
2022/12/05 09:56:47;;;;;;;22.00;14.02;;;22.90;37.80;;;;;;7637845;22;84865;-59
2022/12/05 09:59:48;;;;;;;27.27;14.40;;;22.90;37.70;;;;;;7633815;22;84373;-61
2022/12/05 10:02:48;;;;;;;22.08;14.48;;;22.90;37.60;;;;;;7635515;22;83016;-63
2022/12/05 10:05:49;;;;;;;19.75;14.05;;;22.90;37.60;;;;;;7632187;22;82959;-62
2022/12/05 10:08:49;;;;;;;20.58;14.07;;;22.90;37.60;;;;;;7637415;22;82882;-65
2022/12/05 10:11:49;;;;;;;21.95;14.88;;;22.90;37.70;;;;;;7635611;22;83031;-64
2022/12/05 10:14:50;;;;;;;19.88;13.95;;;22.90;37.50;;;;;;7635465;22;83087;-62
2022/12/05 10:17:51;;;;;;;18.88;12.98;;;22.90;37.50;;;;;;7629727;22;83860;-62
2022/12/05 10:20:51;;;;;;;18.30;13.18;;;22.90;37.60;;;;;;7634115;22;83185;-61
2022/12/05 10:23:51;;;;;;;19.42;13.57;;;22.90;38.30;;;;;;7629546;22;83243;-61
2022/12/05 10:26:52;;;;;;;21.17;14.10;;;23.00;37.70;;;;;;7638465;22;85020;-61
2022/12/05 10:29:52;;;;;;;20.40;13.00;;;23.00;37.70;;;;;;7636747;22;83757;-62
2022/12/05 10:32:53;;;;;;;19.05;12.95;;;23.00;37.70;;;;;;7634570;22;84192;-62
2022/12/05 10:35:53;;;;;;;18.15;12.48;;;23.00;37.70;;;;;;7634640;22;83235;-61
2022/12/05 10:38:56;;;;;;;17.77;12.63;;;23.00;37.70;;;;;;7640616;22;83750;-61
2022/12/05 10:41:56;;;;;;;18.27;12.40;;;23.00;37.70;;;;;;7634152;22;83304;-60
2022/12/05 10:44:57;;;;;;;21.15;13.23;;;23.00;37.70;;;;;;7637705;22;83416;-60
2022/12/05 10:47:57;;;;;;;16.83;11.98;;;23.00;37.80;;;;;;7636815;22;84031;-61
2022/12/05 10:50:58;;;;;;;16.92;12.65;;;23.00;37.80;;;;;;7631978;22;83014;-61
2022/12/05 10:53:59;;;;;;;18.45;12.32;;;23.00;37.70;;;;;;7632111;22;83099;-61
2022/12/05 10:56:59;;;;;;;17.33;12.25;;;23.00;37.60;;;;;;7632095;22;83345;-60
2022/12/05 11:00:00;;;;;;;17.77;11.27;;;23.10;37.70;;;;;;7634863;22;82704;-60
2022/12/05 11:03:00;;;;;;;17.20;12.40;;;23.10;37.70;;;;;;7611570;22;84779;-61
2022/12/05 11:06:01;;;;;;;16.65;11.45;;;23.30;37.70;;;;;;7639707;22;83360;-64
2022/12/05 11:09:01;;;;;;;17.17;12.02;;;23.40;37.90;;;;;;7640413;22;83791;-61
2022/12/05 11:12:02;;;;;;;16.85;11.60;;;23.50;37.90;;;;;;7628707;22;84552;-61
2022/12/05 11:15:03;;;;;;;17.20;11.55;;;23.60;37.90;;;;;;7635430;22;83291;-61
2022/12/05 11:18:03;;;;;;;14.90;11.00;;;23.80;37.90;;;;;;7636603;22;82762;-64
2022/12/05 11:21:04;;;;;;;15.75;10.88;;;24.00;38.00;;;;;;7636403;22;82913;-64
2022/12/05 11:24:05;;;;;;;16.92;11.88;;;24.10;37.80;;;;;;7639276;22;83335;-64
2022/12/05 11:27:05;;;;;;;16.27;11.80;;;24.20;37.70;;;;;;7633163;22;83314;-65
2022/12/05 11:30:06;;;;;;;17.95;11.27;;;24.40;37.80;;;;;;7637224;22;84460;-66
2022/12/05 11:33:06;;;;;;;17.73;11.32;;;24.50;37.80;;;;;;7634954;22;83173;-64
2022/12/05 11:36:07;;;;;;;14.77;10.38;;;24.60;37.80;;;;;;7640662;22;82921;-66
2022/12/05 11:39:07;;;;;;;16.48;11.70;;;24.70;37.70;;;;;;7638247;22;83388;-68
2022/12/05 11:42:08;;;;;;;15.07;10.48;;;24.80;37.70;;;;;;7633155;22;83841;-69
2022/12/05 11:45:08;;;;;;;15.85;10.93;;;24.80;37.50;;;;;;7638592;22;85544;-69
2022/12/05 11:48:09;;;;;;;14.90;11.02;;;24.70;37.40;;;;;;7636094;22;84238;-70
2022/12/05 11:51:09;;;;;;;14.77;10.63;;;24.70;37.50;;;;;;7639630;22;84208;-69
2022/12/05 11:54:10;;;;;;;13.65;10.57;;;24.80;37.80;;;;;;7638749;22;82907;-68
2022/12/05 11:57:10;;;;;;;14.07;10.43;;;24.90;37.80;;;;;;7634750;22;83974;-70
2022/12/05 12:00:11;;;;;;;12.48;9.80;;;25.00;37.90;;;;;;7634076;22;82980;-71
2022/12/05 12:03:14;;;;;;;16.27;10.02;;;25.10;37.80;;;;;;7613507;22;86069;-68
2022/12/05 12:06:15;;;;;;;15.18;10.20;;;25.30;37.90;;;;;;7637736;22;82862;-68
2022/12/05 12:09:15;;;;;;;14.05;10.15;;;25.30;37.80;;;;;;7638280;22;82782;-69
2022/12/05 12:12:16;;;;;;;13.88;10.25;;;25.50;37.80;;;;;;7636224;22;83369;-70
2022/12/05 12:15:17;;;;;;;13.25;10.38;;;25.50;37.80;;;;;;7637772;22;83355;-69
2022/12/05 12:18:17;;;;;;;12.85;9.68;;;25.60;37.80;;;;;;7635326;22;82855;-71
2022/12/05 12:21:18;;;;;;;15.73;10.80;;;25.70;37.80;;;;;;7642968;22;83441;-68
2022/12/05 12:24:18;;;;;;;11.80;9.38;;;25.70;37.60;;;;;;7635690;22;84546;-70
2022/12/05 12:27:19;;;;;;;12.13;9.13;;;25.80;37.60;;;;;;7643564;22;82931;-69
2022/12/05 12:30:19;;;;;;;15.90;9.65;;;25.90;37.60;;;;;;7642549;22;80978;-69
2022/12/05 12:33:19;;;;;;;13.60;10.25;;;25.90;37.60;;;;;;7644754;22;80291;-69
2022/12/05 12:36:20;;;;;;;14.70;10.30;;;26.00;37.60;;;;;;7637934;22;83801;-72
2022/12/05 12:39:20;;;;;;;13.70;9.95;;;26.10;37.40;;;;;;7629147;22;83219;-70
2022/12/05 12:42:21;;;;;;;14.32;9.85;;;26.10;37.40;;;;;;7643049;22;82837;-69
2022/12/05 12:45:23;;;;;;;16.52;10.02;;;26.10;37.50;;;;;;7643219;22;80640;-70
2022/12/05 12:48:24;;;;;;;14.07;9.25;;;26.20;37.80;;;;;;7639901;22;82858;-73
2022/12/05 12:51:24;;;;;;;17.75;9.23;;;26.20;37.60;;;;;;7641940;22;81699;-72
2022/12/05 12:54:24;;;;;;;18.95;9.98;;;26.20;37.70;;;;;;7639072;22;80295;-73
2022/12/05 12:57:25;;;;;;;15.30;10.25;;;26.20;37.80;;;;;;7640448;22;82990;-70
2022/12/05 13:00:25;;;;;;;13.75;10.00;;;26.20;37.90;;;;;;7640887;22;82796;-70
2022/12/05 13:03:26;;;;;;;15.38;11.35;;;26.20;38.20;;;;;;7635912;22;83892;-71
2022/12/05 13:06:27;;;;;;;17.65;11.60;;;26.30;38.30;;;;;;7640350;22;83063;-63
2022/12/05 13:09:28;;;;;;;21.27;12.32;;;26.20;38.20;;;;;;7633347;22;84384;-64
2022/12/05 13:12:28;;;;;;;27.73;14.15;;;26.20;38.40;;;;;;7639203;22;82806;-62
2022/12/05 13:15:29;;;;;;;36.70;15.80;;;26.20;38.50;;;;;;7637377;22;84510;-65
2022/12/05 13:18:29;;;;;;;49.28;20.35;;;26.20;38.80;;;;;;7636612;22;82738;-65
2022/12/05 13:21:30;;;;;;;48.42;20.75;;;26.20;39.40;;;;;;7638707;22;83030;-65
2022/12/05 13:24:30;;;;;;;52.70;20.65;;;26.10;39.00;;;;;;7631465;22;84757;-61
2022/12/05 13:27:30;;;;;;;40.83;18.90;;;26.10;38.60;;;;;;7640973;22;83348;-61
2022/12/05 13:30:32;;;;;;;34.60;17.85;;;26.00;38.00;;;;;;7633132;22;84550;-57
2022/12/05 13:33:32;;;;;;;32.10;16.58;;;26.00;37.80;;;;;;7632303;22;82905;-60
2022/12/05 13:43:11;;;;;;;25.20;15.60;;;25.90;36.40;;;;;;7635295;22;84397;-60
2022/12/05 13:46:12;;;;;;;29.42;15.18;;;25.80;35.90;;;;;;7638330;22;83232;-60
2022/12/05 13:49:13;;;;;;;25.00;15.48;;;25.80;35.70;;;;;;7637373;22;84062;-60
2022/12/05 13:52:14;;;;;;;21.25;13.75;;;25.80;35.50;;;;;;7635063;22;83110;-61
2022/12/05 13:55:14;;;;;;;20.27;13.55;;;25.80;35.40;;;;;;7607565;22;85217;-60
2022/12/05 13:58:15;;;;;;;18.75;13.65;;;25.80;35.30;;;;;;7633305;22;83500;-60
2022/12/05 14:01:15;;;;;;;19.23;13.35;;;25.90;35.10;;;;;;7627416;22;83665;-62
2022/12/05 14:04:16;;;;;;;25.40;13.15;;;25.80;34.70;;;;;;7637408;22;83718;-63
2022/12/05 14:07:17;;;;;;;22.77;13.00;;;25.80;34.80;;;;;;7634880;22;83070;-64
2022/12/05 14:10:17;;;;;;;26.92;12.95;;;25.70;35.20;;;;;;7636185;22;83366;-62
2022/12/05 14:13:18;;;;;;;24.15;12.27;;;25.50;35.30;;;;;;7635130;22;82953;-61
2022/12/05 14:16:18;;;;;;;17.13;11.52;;;25.30;35.60;;;;;;7633032;22;83028;-62
2022/12/05 14:19:19;;;;;;;20.15;12.43;;;25.20;36.30;;;;;;7634847;22;83071;-60
2022/12/05 14:22:19;;;;;;;18.85;11.88;;;25.00;36.70;;;;;;7600288;22;84028;-62
2022/12/05 14:25:20;;;;;;;22.92;11.68;;;24.90;36.90;;;;;;7635563;22;83530;-69
2022/12/05 14:28:20;;;;;;;16.45;10.73;;;24.70;37.50;;;;;;7635307;22;83125;-65
2022/12/05 14:31:21;;;;;;;19.33;10.80;;;24.60;38.30;;;;;;7607205;22;86412;-63
2022/12/05 14:34:23;;;;;;;16.63;10.82;;;24.50;38.80;;;;;;7636695;22;83491;-64
2022/12/05 14:37:24;;;;;;;18.13;11.23;;;24.40;39.20;;;;;;7637604;22;83414;-64
2022/12/05 14:40:24;;;;;;;37.42;11.20;;;24.30;39.60;;;;;;7631808;22;83088;-67
2022/12/05 14:43:24;;;;;;;15.68;10.02;;;24.30;39.70;;;;;;7626522;22;83439;-66
2022/12/05 14:46:25;;;;;;;15.82;10.43;;;24.20;40.00;;;;;;7633645;22;83439;-66
2022/12/05 14:49:25;;;;;;;18.08;10.77;;;24.10;40.10;;;;;;7636628;22;83868;-67
2022/12/05 14:52:26;;;;;;;15.77;10.07;;;24.10;40.30;;;;;;7633737;22;83731;-68
2022/12/05 14:55:26;;;;;;;15.65;10.43;;;24.00;40.60;;;;;;7637741;22;82898;-68
2022/12/05 14:58:27;;;;;;;13.10;9.93;;;23.90;40.60;;;;;;7635622;22;83821;-74
2022/12/05 15:01:27;;;;;;;15.38;10.57;;;23.90;40.70;;;;;;7638849;22;82790;-73
2022/12/05 15:04:28;;;;;;;17.27;10.63;;;23.90;40.80;;;;;;7631714;22;83103;-75
2022/12/05 15:07:28;;;;;;;15.60;10.68;;;23.80;40.90;;;;;;7636111;22;83086;-78
2022/12/05 15:10:29;;;;;;;18.80;10.60;;;23.80;41.10;;;;;;7609604;22;86022;-77
2022/12/05 15:13:30;;;;;;;17.15;10.65;;;23.70;41.10;;;;;;7636253;22;82833;-77
2022/12/05 15:16:31;;;;;;;15.45;9.18;;;23.70;41.30;;;;;;7635249;22;84284;-68
2022/12/05 15:19:31;;;;;;;16.20;10.45;;;23.70;41.10;;;;;;7635413;22;82182;-65
2022/12/05 15:22:32;;;;;;;14.40;10.38;;;23.70;41.10;;;;;;7639316;22;83124;-70
2022/12/05 15:25:32;;;;;;;22.83;9.77;;;23.60;41.00;;;;;;7636391;22;84785;-66
2022/12/05 15:28:33;;;;;;;18.55;10.75;;;23.60;41.10;;;;;;7614940;22;85944;-61
2022/12/05 15:31:33;;;;;;;15.32;9.75;;;23.60;41.10;;;;;;7636360;22;82780;-64
2022/12/05 15:34:34;;;;;;;17.15;10.40;;;23.60;41.10;;;;;;7641754;22;81902;-64